<?xml version="1.0" encoding="UTF-8" standalone="yes"?>
<gpx version="1.1" creator="MagicMaps Tour Explorer"
     xmlns:xsi="http://www.w3.org/2001/XMLSchema-instance"
     xmlns="http://www.topografix.com/GPX/1/1">
  <trk>
    <name>bodenschn firstalm w</name>
    <trkseg>
      <trkpt lat="47.666120017" lon="11.876060159">
        <ele>1178.2</ele>
        <time>2008-12-13T11:45:38</time>
      </trkpt>
      <trkpt lat="47.666120017" lon="11.875390159">
        <ele>1175.8</ele>
        <time>2008-12-13T11:47:45</time>
      </trkpt>
      <trkpt lat="47.666200017" lon="11.874990159">
        <ele>1179.7</ele>
        <time>2008-12-13T11:48:07</time>
      </trkpt>
      <trkpt lat="47.666190017" lon="11.874460159">
        <ele>1185.0</ele>
        <time>2008-12-13T11:49:04</time>
      </trkpt>
      <trkpt lat="47.666170017" lon="11.874090159">
        <ele>1186.4</ele>
        <time>2008-12-13T11:49:18</time>
      </trkpt>
      <trkpt lat="47.666140017" lon="11.873590159">
        <ele>1191.2</ele>
        <time>2008-12-13T11:49:54</time>
      </trkpt>
      <trkpt lat="47.666180017" lon="11.873060159">
        <ele>1195.5</ele>
        <time>2008-12-13T11:50:27</time>
      </trkpt>
      <trkpt lat="47.666530017" lon="11.872180158">
        <ele>1201.8</ele>
        <time>2008-12-13T11:51:28</time>
      </trkpt>
      <trkpt lat="47.666570017" lon="11.871850158">
        <ele>1203.2</ele>
        <time>2008-12-13T11:51:41</time>
      </trkpt>
      <trkpt lat="47.666690017" lon="11.871450158">
        <ele>1206.1</ele>
        <time>2008-12-13T11:52:03</time>
      </trkpt>
      <trkpt lat="47.667180017" lon="11.870770158">
        <ele>1215.7</ele>
        <time>2008-12-13T11:53:12</time>
      </trkpt>
      <trkpt lat="47.667400017" lon="11.870300158">
        <ele>1219.1</ele>
        <time>2008-12-13T11:53:50</time>
      </trkpt>
      <trkpt lat="47.667530017" lon="11.869760158">
        <ele>1221.0</ele>
        <time>2008-12-13T11:54:10</time>
      </trkpt>
      <trkpt lat="47.667610017" lon="11.868830158">
        <ele>1227.7</ele>
        <time>2008-12-13T11:55:18</time>
      </trkpt>
      <trkpt lat="47.667680017" lon="11.867760158">
        <ele>1232.5</ele>
        <time>2008-12-13T11:56:01</time>
      </trkpt>
      <trkpt lat="47.667810017" lon="11.867350158">
        <ele>1235.4</ele>
        <time>2008-12-13T11:56:29</time>
      </trkpt>
      <trkpt lat="47.667720017" lon="11.866160158">
        <ele>1243.1</ele>
        <time>2008-12-13T11:57:38</time>
      </trkpt>
      <trkpt lat="47.667780017" lon="11.865630158">
        <ele>1246.0</ele>
        <time>2008-12-13T11:58:06</time>
      </trkpt>
      <trkpt lat="47.668050017" lon="11.865020158">
        <ele>1249.8</ele>
        <time>2008-12-13T11:58:45</time>
      </trkpt>
      <trkpt lat="47.668260017" lon="11.864080158">
        <ele>1257.1</ele>
        <time>2008-12-13T11:59:43</time>
      </trkpt>
      <trkpt lat="47.668210017" lon="11.863800158">
        <ele>1259.5</ele>
        <time>2008-12-13T11:59:58</time>
      </trkpt>
      <trkpt lat="47.668190017" lon="11.861600158">
        <ele>1270.0</ele>
        <time>2008-12-13T12:01:54</time>
      </trkpt>
      <trkpt lat="47.668010017" lon="11.858560158">
        <ele>1286.9</ele>
        <time>2008-12-13T12:04:45</time>
      </trkpt>
      <trkpt lat="47.667890017" lon="11.855910158">
        <ele>1305.1</ele>
        <time>2008-12-13T12:07:26</time>
      </trkpt>
      <trkpt lat="47.667820017" lon="11.855190158">
        <ele>1308.0</ele>
        <time>2008-12-13T12:08:08</time>
      </trkpt>
      <trkpt lat="47.668060017" lon="11.851850158">
        <ele>1340.2</ele>
        <time>2008-12-13T12:12:13</time>
      </trkpt>
      <trkpt lat="47.668040017" lon="11.851670158">
        <ele>1343.6</ele>
        <time>2008-12-13T12:12:28</time>
      </trkpt>
      <trkpt lat="47.667810017" lon="11.851260158">
        <ele>1347.4</ele>
        <time>2008-12-13T12:13:06</time>
      </trkpt>
      <trkpt lat="47.667750017" lon="11.851100158">
        <ele>1348.4</ele>
        <time>2008-12-13T12:13:17</time>
      </trkpt>
      <trkpt lat="47.667850017" lon="11.850780158">
        <ele>1349.3</ele>
        <time>2008-12-13T12:13:39</time>
      </trkpt>
      <trkpt lat="47.667870017" lon="11.850210158">
        <ele>1350.3</ele>
        <time>2008-12-13T12:14:17</time>
      </trkpt>
      <trkpt lat="47.668090017" lon="11.850370158">
        <ele>1350.3</ele>
        <time>2008-12-13T12:14:19</time>
      </trkpt>
      <trkpt lat="47.668540017" lon="11.850220158">
        <ele>1352.7</ele>
        <time>2008-12-13T12:14:44</time>
      </trkpt>
      <trkpt lat="47.668670017" lon="11.849950158">
        <ele>1355.1</ele>
        <time>2008-12-13T12:15:07</time>
      </trkpt>
      <trkpt lat="47.669180017" lon="11.849780158">
        <ele>1367.1</ele>
        <time>2008-12-13T12:18:28</time>
      </trkpt>
      <trkpt lat="47.669560017" lon="11.850390158">
        <ele>1376.3</ele>
        <time>2008-12-13T12:19:40</time>
      </trkpt>
      <trkpt lat="47.669620017" lon="11.850670158">
        <ele>1382.5</ele>
        <time>2008-12-13T12:20:16</time>
      </trkpt>
      <trkpt lat="47.669710017" lon="11.850820158">
        <ele>1386.4</ele>
        <time>2008-12-13T12:20:37</time>
      </trkpt>
      <trkpt lat="47.669770017" lon="11.850730158">
        <ele>1388.3</ele>
        <time>2008-12-13T12:21:05</time>
      </trkpt>
      <trkpt lat="47.669870017" lon="11.849790158">
        <ele>1396.5</ele>
        <time>2008-12-13T12:23:41</time>
      </trkpt>
      <trkpt lat="47.669830017" lon="11.849390158">
        <ele>1398.4</ele>
        <time>2008-12-13T12:24:09</time>
      </trkpt>
      <trkpt lat="47.670040017" lon="11.848110158">
        <ele>1415.7</ele>
        <time>2008-12-13T12:26:12</time>
      </trkpt>
      <trkpt lat="47.670050017" lon="11.847600158">
        <ele>1421.9</ele>
        <time>2008-12-13T12:26:54</time>
      </trkpt>
      <trkpt lat="47.670160017" lon="11.847380158">
        <ele>1427.2</ele>
        <time>2008-12-13T12:27:31</time>
      </trkpt>
      <trkpt lat="47.670670017" lon="11.847970158">
        <ele>1438.8</ele>
        <time>2008-12-13T12:28:35</time>
      </trkpt>
      <trkpt lat="47.670830017" lon="11.847790158">
        <ele>1457.5</ele>
        <time>2008-12-13T12:31:18</time>
      </trkpt>
      <trkpt lat="47.670980017" lon="11.847890158">
        <ele>1464.2</ele>
        <time>2008-12-13T12:32:00</time>
      </trkpt>
      <trkpt lat="47.671200017" lon="11.847460158">
        <ele>1474.8</ele>
        <time>2008-12-13T12:33:16</time>
      </trkpt>
      <trkpt lat="47.671400017" lon="11.847360158">
        <ele>1481.5</ele>
        <time>2008-12-13T12:33:50</time>
      </trkpt>
      <trkpt lat="47.671540017" lon="11.847140158">
        <ele>1487.8</ele>
        <time>2008-12-13T12:34:25</time>
      </trkpt>
      <trkpt lat="47.671650017" lon="11.847120158">
        <ele>1487.8</ele>
        <time>2008-12-13T12:34:38</time>
      </trkpt>
      <trkpt lat="47.671580017" lon="11.847090158">
        <ele>1491.1</ele>
        <time>2008-12-13T12:34:56</time>
      </trkpt>
      <trkpt lat="47.671720017" lon="11.846880158">
        <ele>1496.4</ele>
        <time>2008-12-13T12:35:33</time>
      </trkpt>
      <trkpt lat="47.671710017" lon="11.846520158">
        <ele>1501.2</ele>
        <time>2008-12-13T12:36:50</time>
      </trkpt>
      <trkpt lat="47.671620017" lon="11.846440158">
        <ele>1503.6</ele>
        <time>2008-12-13T12:37:07</time>
      </trkpt>
      <trkpt lat="47.671720017" lon="11.845990158">
        <ele>1506.5</ele>
        <time>2008-12-13T12:37:46</time>
      </trkpt>
      <trkpt lat="47.671650017" lon="11.845430158">
        <ele>1512.8</ele>
        <time>2008-12-13T12:38:38</time>
      </trkpt>
      <trkpt lat="47.671770017" lon="11.845210158">
        <ele>1515.2</ele>
        <time>2008-12-13T12:39:01</time>
      </trkpt>
      <trkpt lat="47.671800017" lon="11.845030158">
        <ele>1514.7</ele>
        <time>2008-12-13T12:39:29</time>
      </trkpt>
      <trkpt lat="47.671490017" lon="11.844740158">
        <ele>1518.1</ele>
        <time>2008-12-13T12:40:12</time>
      </trkpt>
      <trkpt lat="47.671400017" lon="11.844330158">
        <ele>1522.9</ele>
        <time>2008-12-13T12:40:50</time>
      </trkpt>
      <trkpt lat="47.671400017" lon="11.843410158">
        <ele>1537.8</ele>
        <time>2008-12-13T12:42:46</time>
      </trkpt>
      <trkpt lat="47.671190017" lon="11.842980158">
        <ele>1549.3</ele>
        <time>2008-12-13T12:45:05</time>
      </trkpt>
      <trkpt lat="47.670630017" lon="11.842450158">
        <ele>1566.1</ele>
        <time>2008-12-13T12:48:57</time>
      </trkpt>
      <trkpt lat="47.670810017" lon="11.841970158">
        <ele>1578.1</ele>
        <time>2008-12-13T12:50:07</time>
      </trkpt>
      <trkpt lat="47.670830017" lon="11.841620158">
        <ele>1585.8</ele>
        <time>2008-12-13T12:51:11</time>
      </trkpt>
      <trkpt lat="47.670610017" lon="11.841340158">
        <ele>1599.3</ele>
        <time>2008-12-13T12:52:52</time>
      </trkpt>
      <trkpt lat="47.670260017" lon="11.841220158">
        <ele>1611.3</ele>
        <time>2008-12-13T12:54:26</time>
      </trkpt>
      <trkpt lat="47.669890017" lon="11.841570158">
        <ele>1622.8</ele>
        <time>2008-12-13T12:56:15</time>
      </trkpt>
      <trkpt lat="47.669890017" lon="11.841400158">
        <ele>1625.2</ele>
        <time>2008-12-13T12:56:53</time>
      </trkpt>
      <trkpt lat="47.669830017" lon="11.841480158">
        <ele>1629.1</ele>
        <time>2008-12-13T12:57:43</time>
      </trkpt>
      <trkpt lat="47.669790017" lon="11.841300158">
        <ele>1635.3</ele>
        <time>2008-12-13T12:58:58</time>
      </trkpt>
      <trkpt lat="47.669690017" lon="11.841460158">
        <ele>1641.1</ele>
        <time>2008-12-13T13:00:09</time>
      </trkpt>
      <trkpt lat="47.669680017" lon="11.841190158">
        <ele>1647.8</ele>
        <time>2008-12-13T13:01:05</time>
      </trkpt>
      <trkpt lat="47.669590017" lon="11.841260158">
        <ele>1654.1</ele>
        <time>2008-12-13T13:02:01</time>
      </trkpt>
      <trkpt lat="47.669620017" lon="11.841050158">
        <ele>1657.0</ele>
        <time>2008-12-13T13:03:20</time>
      </trkpt>
      <trkpt lat="47.669520017" lon="11.841110158">
        <ele>1658.4</ele>
        <time>2008-12-13T13:04:43</time>
      </trkpt>
      <trkpt lat="47.670060017" lon="11.839790158">
        <ele>1672.8</ele>
        <time>2008-12-13T13:08:13</time>
      </trkpt>
      <trkpt lat="47.670700017" lon="11.838900158">
        <ele>1657.9</ele>
        <time>2008-12-13T13:09:26</time>
      </trkpt>
      <trkpt lat="47.671740017" lon="11.837910158">
        <ele>1676.7</ele>
        <time>2008-12-13T13:12:13</time>
      </trkpt>
      <trkpt lat="47.671730017" lon="11.838140158">
        <ele>1676.7</ele>
        <time>2008-12-13T13:13:26</time>
      </trkpt>
      <trkpt lat="47.671730017" lon="11.837960158">
        <ele>1676.7</ele>
        <time>2008-12-13T13:13:53</time>
      </trkpt>
      <trkpt lat="47.671440017" lon="11.838160158">
        <ele>1670.4</ele>
        <time>2008-12-13T13:14:14</time>
      </trkpt>
      <trkpt lat="47.671100017" lon="11.838530158">
        <ele>1661.3</ele>
        <time>2008-12-13T13:14:41</time>
      </trkpt>
      <trkpt lat="47.670640017" lon="11.838980158">
        <ele>1661.3</ele>
        <time>2008-12-13T13:15:22</time>
      </trkpt>
      <trkpt lat="47.670090017" lon="11.839700158">
        <ele>1665.1</ele>
        <time>2008-12-13T13:16:31</time>
      </trkpt>
      <trkpt lat="47.669420017" lon="11.841450158">
        <ele>1657.9</ele>
        <time>2008-12-13T13:18:02</time>
      </trkpt>
      <trkpt lat="47.669140017" lon="11.841980158">
        <ele>1655.5</ele>
        <time>2008-12-13T13:20:25</time>
      </trkpt>
      <trkpt lat="47.669000017" lon="11.842110158">
        <ele>1648.8</ele>
        <time>2008-12-13T13:20:47</time>
      </trkpt>
      <trkpt lat="47.668930017" lon="11.841850158">
        <ele>1643.5</ele>
        <time>2008-12-13T13:21:07</time>
      </trkpt>
      <trkpt lat="47.668600017" lon="11.842180158">
        <ele>1630.0</ele>
        <time>2008-12-13T13:28:52</time>
      </trkpt>
      <trkpt lat="47.668450017" lon="11.842550158">
        <ele>1621.9</ele>
        <time>2008-12-13T13:29:31</time>
      </trkpt>
      <trkpt lat="47.668530017" lon="11.842500158">
        <ele>1612.3</ele>
        <time>2008-12-13T13:32:47</time>
      </trkpt>
      <trkpt lat="47.668500017" lon="11.842960158">
        <ele>1601.2</ele>
        <time>2008-12-13T13:33:04</time>
      </trkpt>
      <trkpt lat="47.668600017" lon="11.842840158">
        <ele>1592.6</ele>
        <time>2008-12-13T13:33:24</time>
      </trkpt>
      <trkpt lat="47.668610017" lon="11.842970158">
        <ele>1588.2</ele>
        <time>2008-12-13T13:33:29</time>
      </trkpt>
      <trkpt lat="47.668700017" lon="11.842990158">
        <ele>1583.4</ele>
        <time>2008-12-13T13:33:40</time>
      </trkpt>
      <trkpt lat="47.668680017" lon="11.843220158">
        <ele>1572.8</ele>
        <time>2008-12-13T13:33:51</time>
      </trkpt>
      <trkpt lat="47.668790017" lon="11.843250158">
        <ele>1570.0</ele>
        <time>2008-12-13T13:33:56</time>
      </trkpt>
      <trkpt lat="47.668760017" lon="11.843380158">
        <ele>1565.6</ele>
        <time>2008-12-13T13:34:06</time>
      </trkpt>
      <trkpt lat="47.669020017" lon="11.843430158">
        <ele>1556.0</ele>
        <time>2008-12-13T13:34:31</time>
      </trkpt>
      <trkpt lat="47.669140017" lon="11.843840158">
        <ele>1539.7</ele>
        <time>2008-12-13T13:35:09</time>
      </trkpt>
      <trkpt lat="47.669260017" lon="11.843900158">
        <ele>1534.9</ele>
        <time>2008-12-13T13:35:21</time>
      </trkpt>
      <trkpt lat="47.669420017" lon="11.844460158">
        <ele>1511.3</ele>
        <time>2008-12-13T13:35:33</time>
      </trkpt>
      <trkpt lat="47.669290017" lon="11.844910158">
        <ele>1494.5</ele>
        <time>2008-12-13T13:36:00</time>
      </trkpt>
      <trkpt lat="47.669170017" lon="11.844960158">
        <ele>1490.7</ele>
        <time>2008-12-13T13:36:07</time>
      </trkpt>
      <trkpt lat="47.669170017" lon="11.845180158">
        <ele>1482.0</ele>
        <time>2008-12-13T13:36:12</time>
      </trkpt>
      <trkpt lat="47.669030017" lon="11.845460158">
        <ele>1470.0</ele>
        <time>2008-12-13T13:36:21</time>
      </trkpt>
      <trkpt lat="47.669140017" lon="11.845790158">
        <ele>1456.0</ele>
        <time>2008-12-13T13:36:32</time>
      </trkpt>
      <trkpt lat="47.668810017" lon="11.845860158">
        <ele>1447.4</ele>
        <time>2008-12-13T13:36:47</time>
      </trkpt>
      <trkpt lat="47.668680017" lon="11.846340158">
        <ele>1426.7</ele>
        <time>2008-12-13T13:37:07</time>
      </trkpt>
      <trkpt lat="47.668840017" lon="11.847620158">
        <ele>1375.8</ele>
        <time>2008-12-13T13:37:32</time>
      </trkpt>
      <trkpt lat="47.668610017" lon="11.847820158">
        <ele>1369.0</ele>
        <time>2008-12-13T13:38:09</time>
      </trkpt>
      <trkpt lat="47.668460017" lon="11.848440158">
        <ele>1349.8</ele>
        <time>2008-12-13T13:38:20</time>
      </trkpt>
      <trkpt lat="47.668120017" lon="11.848980158">
        <ele>1334.9</ele>
        <time>2008-12-13T13:38:29</time>
      </trkpt>
      <trkpt lat="47.667840017" lon="11.849240158">
        <ele>1327.2</ele>
        <time>2008-12-13T13:38:37</time>
      </trkpt>
      <trkpt lat="47.667460017" lon="11.849760158">
        <ele>1317.6</ele>
        <time>2008-12-13T13:38:47</time>
      </trkpt>
      <trkpt lat="47.667380017" lon="11.849940158">
        <ele>1315.2</ele>
        <time>2008-12-13T13:38:50</time>
      </trkpt>
      <trkpt lat="47.667730017" lon="11.851070158">
        <ele>1316.2</ele>
        <time>2008-12-13T13:42:45</time>
      </trkpt>
      <trkpt lat="47.668050017" lon="11.851690158">
        <ele>1317.6</ele>
        <time>2008-12-13T13:43:05</time>
      </trkpt>
      <trkpt lat="47.668050017" lon="11.852560158">
        <ele>1309.9</ele>
        <time>2008-12-13T13:43:17</time>
      </trkpt>
      <trkpt lat="47.667900017" lon="11.853910158">
        <ele>1291.2</ele>
        <time>2008-12-13T13:43:33</time>
      </trkpt>
      <trkpt lat="47.667840017" lon="11.855210158">
        <ele>1278.2</ele>
        <time>2008-12-13T13:43:49</time>
      </trkpt>
      <trkpt lat="47.668060017" lon="11.859430158">
        <ele>1244.6</ele>
        <time>2008-12-13T13:44:50</time>
      </trkpt>
      <trkpt lat="47.668080017" lon="11.859890158">
        <ele>1242.6</ele>
        <time>2008-12-13T13:44:55</time>
      </trkpt>
      <trkpt lat="47.668190017" lon="11.861620158">
        <ele>1230.1</ele>
        <time>2008-12-13T13:45:23</time>
      </trkpt>
      <trkpt lat="47.668250017" lon="11.864020158">
        <ele>1213.8</ele>
        <time>2008-12-13T13:45:57</time>
      </trkpt>
      <trkpt lat="47.668140017" lon="11.864680158">
        <ele>1209.0</ele>
        <time>2008-12-13T13:46:05</time>
      </trkpt>
      <trkpt lat="47.668010017" lon="11.865020158">
        <ele>1204.7</ele>
        <time>2008-12-13T13:46:11</time>
      </trkpt>
      <trkpt lat="47.667730017" lon="11.866050158">
        <ele>1197.9</ele>
        <time>2008-12-13T13:46:20</time>
      </trkpt>
      <trkpt lat="47.667800017" lon="11.867260158">
        <ele>1190.2</ele>
        <time>2008-12-13T13:46:34</time>
      </trkpt>
      <trkpt lat="47.667640017" lon="11.867960158">
        <ele>1185.0</ele>
        <time>2008-12-13T13:46:43</time>
      </trkpt>
      <trkpt lat="47.667640017" lon="11.868520158">
        <ele>1180.6</ele>
        <time>2008-12-13T13:46:48</time>
      </trkpt>
      <trkpt lat="47.667560017" lon="11.869030158">
        <ele>1177.3</ele>
        <time>2008-12-13T13:46:55</time>
      </trkpt>
      <trkpt lat="47.667550017" lon="11.869530158">
        <ele>1174.9</ele>
        <time>2008-12-13T13:47:00</time>
      </trkpt>
      <trkpt lat="47.667400017" lon="11.870280158">
        <ele>1169.1</ele>
        <time>2008-12-13T13:47:09</time>
      </trkpt>
      <trkpt lat="47.667180017" lon="11.870850158">
        <ele>1165.3</ele>
        <time>2008-12-13T13:47:20</time>
      </trkpt>
      <trkpt lat="47.666960017" lon="11.871040158">
        <ele>1164.8</ele>
        <time>2008-12-13T13:47:35</time>
      </trkpt>
      <trkpt lat="47.666650017" lon="11.871510158">
        <ele>1160.5</ele>
        <time>2008-12-13T13:48:00</time>
      </trkpt>
      <trkpt lat="47.666570017" lon="11.871980158">
        <ele>1157.1</ele>
        <time>2008-12-13T13:48:19</time>
      </trkpt>
      <trkpt lat="47.666220017" lon="11.873030159">
        <ele>1141.2</ele>
        <time>2008-12-13T13:48:45</time>
      </trkpt>
      <trkpt lat="47.666150017" lon="11.873580159">
        <ele>1135.9</ele>
        <time>2008-12-13T13:48:51</time>
      </trkpt>
      <trkpt lat="47.666240017" lon="11.874560159">
        <ele>1124.4</ele>
        <time>2008-12-13T13:49:04</time>
      </trkpt>
      <trkpt lat="47.666060017" lon="11.875740159">
        <ele>1113.8</ele>
        <time>2008-12-13T13:49:27</time>
      </trkpt>
      <trkpt lat="47.666140017" lon="11.876020159">
        <ele>1112.9</ele>
        <time>2008-12-13T13:50:47</time>
      </trkpt>
    </trkseg>
  </trk>
</gpx>
